Time;durP1;ratioP1;P1;durP2;ratioP2;P2;SDS_P1;SDS_P2;PMS_P1;PMS_P2;Temp;Humidity;BMP_temperature;BMP_pressure;BME280_temperature;BME280_humidity;BME280_pressure;Samples;Min_cycle;Max_cycle;Signal;HPM_P1;HPM_P2
2023/09/05 00:01:54;;;;;;;6.50;2.50;;;18.00;95.00;;;;;;6074527;23;20382;-72
2023/09/05 00:04:20;;;;;;;5.33;2.33;;;18.00;95.20;;;;;;6101183;23;20405;-72
2023/09/05 00:06:49;;;;;;;4.60;2.73;;;18.00;95.40;;;;;;6100453;23;20198;-72
2023/09/05 00:09:18;;;;;;;3.27;2.30;;;18.00;95.50;;;;;;6099993;23;20142;-72
2023/09/05 00:11:45;;;;;;;5.53;2.57;;;17.90;95.50;;;;;;6099613;23;20383;-73
2023/09/05 00:14:11;;;;;;;3.13;2.50;;;17.90;95.70;;;;;;6101090;23;20421;-71
2023/09/05 00:16:37;;;;;;;3.10;2.10;;;17.90;95.70;;;;;;6100413;23;20756;-72
2023/09/05 00:19:03;;;;;;;4.00;2.77;;;17.90;95.60;;;;;;6099792;23;20146;-74
2023/09/05 00:21:29;;;;;;;3.40;2.63;;;17.90;95.40;;;;;;6099835;23;20406;-71
2023/09/05 00:24:28;;;;;;;2.00;1.80;;;17.90;95.40;;;;;;6100150;23;20366;-72
2023/09/05 00:26:55;;;;;;;5.50;2.40;;;17.90;95.30;;;;;;6100243;23;20165;-73
2023/09/05 00:29:23;;;;;;;3.60;2.63;;;18.00;95.20;;;;;;6099624;23;20776;-71
2023/09/05 00:31:49;;;;;;;4.37;2.37;;;18.00;94.80;;;;;;6099454;23;20402;-72
2023/09/05 00:34:14;;;;;;;4.40;2.97;;;18.10;94.30;;;;;;6100550;23;20405;-73
2023/09/05 00:36:41;;;;;;;2.93;2.17;;;18.10;94.10;;;;;;6100436;23;20383;-73
2023/09/05 00:39:07;;;;;;;4.23;2.37;;;18.10;94.20;;;;;;6073910;23;20521;-73
2023/09/05 00:41:34;;;;;;;3.70;2.33;;;18.10;94.70;;;;;;6098720;23;20408;-72
2023/09/05 00:44:00;;;;;;;3.10;2.47;;;18.10;94.20;;;;;;6073994;23;20138;-71
2023/09/05 00:46:28;;;;;;;2.83;2.07;;;18.10;94.10;;;;;;6073645;23;20926;-72
2023/09/05 00:48:57;;;;;;;4.20;2.60;;;18.10;94.10;;;;;;6099294;23;20150;-74
2023/09/05 00:51:25;;;;;;;5.93;2.63;;;18.10;94.10;;;;;;6080400;23;20398;-72
2023/09/05 00:53:51;;;;;;;4.83;2.30;;;18.10;94.10;;;;;;6100658;23;20373;-73
2023/09/05 00:56:17;;;;;;;2.93;2.23;;;18.00;94.20;;;;;;6099895;23;20369;-72
2023/09/05 00:58:44;;;;;;;4.27;2.70;;;18.00;94.40;;;;;;6073804;23;20197;-72
2023/09/05 01:01:09;;;;;;;3.40;2.43;;;18.00;94.20;;;;;;6099567;23;20404;-72
2023/09/05 01:03:35;;;;;;;6.30;2.10;;;18.00;94.40;;;;;;6098958;23;20143;-72
2023/09/05 01:06:07;;;;;;;4.30;2.40;;;18.00;94.40;;;;;;6074580;23;20177;-72
2023/09/05 01:08:45;;;;;;;5.43;2.53;;;17.90;94.50;;;;;;6101737;23;20133;-72
2023/09/05 01:11:12;;;;;;;2.10;1.70;;;18.00;94.60;;;;;;6099750;23;20581;-72
2023/09/05 01:13:38;;;;;;;3.30;2.50;;;18.00;94.50;;;;;;6100977;23;20364;-72
2023/09/05 01:16:04;;;;;;;6.93;2.30;;;18.00;94.20;;;;;;6103799;23;20425;-71
2023/09/05 01:18:34;;;;;;;2.93;2.40;;;18.00;93.80;;;;;;6100824;23;20699;-72
2023/09/05 01:21:23;;;;;;;2.83;2.03;;;18.00;93.80;;;;;;6102095;23;20177;-71
2023/09/05 01:24:10;;;;;;;2.30;2.10;;;18.00;93.80;;;;;;6106066;23;20376;-70
2023/09/05 01:26:37;;;;;;;2.83;2.20;;;18.00;93.70;;;;;;6100024;23;20526;-72
2023/09/05 01:29:03;;;;;;;2.70;1.90;;;18.00;93.70;;;;;;6075752;23;20625;-71
2023/09/05 01:31:29;;;;;;;2.63;2.27;;;18.00;93.60;;;;;;6101247;23;20396;-73
2023/09/05 01:33:54;;;;;;;3.23;2.20;;;18.00;93.90;;;;;;6076257;23;20400;-71
2023/09/05 01:36:20;;;;;;;5.40;2.53;;;18.00;93.30;;;;;;6101387;23;20156;-71
2023/09/05 01:38:45;;;;;;;3.33;2.70;;;18.00;93.40;;;;;;6101158;23;20145;-71
2023/09/05 01:41:11;;;;;;;5.03;2.30;;;18.00;93.10;;;;;;6101800;23;20251;-71
2023/09/05 01:43:37;;;;;;;3.70;2.13;;;18.10;92.70;;;;;;6075504;23;20150;-72
2023/09/05 01:46:03;;;;;;;3.00;1.87;;;18.20;92.30;;;;;;6102322;23;20166;-72
2023/09/05 01:48:28;;;;;;;3.40;2.70;;;18.20;92.10;;;;;;6101844;23;20149;-73
2023/09/05 01:50:54;;;;;;;2.70;2.30;;;18.20;92.00;;;;;;6101645;23;20296;-72
2023/09/05 01:53:19;;;;;;;5.93;2.30;;;18.20;91.80;;;;;;6101493;23;20141;-72
2023/09/05 01:55:45;;;;;;;2.87;2.10;;;18.20;91.40;;;;;;6102166;23;20235;-72
2023/09/05 01:58:11;;;;;;;3.27;2.00;;;18.20;91.40;;;;;;6101946;23;20151;-72
2023/09/05 02:00:36;;;;;;;3.70;2.20;;;18.20;91.10;;;;;;6076021;23;20255;-72
2023/09/05 02:03:02;;;;;;;2.60;1.83;;;18.30;90.80;;;;;;6100653;23;20277;-72
2023/09/05 02:05:28;;;;;;;3.20;2.33;;;18.30;90.60;;;;;;6100736;23;20433;-71
2023/09/05 02:07:56;;;;;;;4.03;2.20;;;18.30;90.10;;;;;;6101019;23;20696;-72
2023/09/05 02:10:21;;;;;;;3.00;1.93;;;18.30;89.50;;;;;;6100951;23;20292;-72
2023/09/05 02:12:49;;;;;;;2.30;1.90;;;18.30;89.40;;;;;;6074345;23;20395;-72
2023/09/05 02:15:14;;;;;;;3.57;2.23;;;18.20;89.40;;;;;;6074794;23;20149;-72
2023/09/05 02:17:40;;;;;;;2.87;2.57;;;18.20;89.90;;;;;;6074620;23;20632;-71
2023/09/05 02:20:06;;;;;;;3.50;1.97;;;18.10;89.50;;;;;;6076445;23;20193;-72
2023/09/05 02:22:32;;;;;;;2.13;1.70;;;18.20;89.00;;;;;;6102395;23;20142;-72
2023/09/05 02:24:59;;;;;;;2.30;1.67;;;18.20;89.10;;;;;;6100811;23;20484;-71
2023/09/05 02:27:26;;;;;;;3.20;1.70;;;18.20;89.10;;;;;;6099544;23;20145;-71
2023/09/05 02:29:56;;;;;;;2.83;2.10;;;18.10;88.90;;;;;;6074553;23;20401;-71
2023/09/05 02:32:24;;;;;;;3.00;1.90;;;18.10;89.20;;;;;;6099126;23;20449;-71
2023/09/05 02:34:51;;;;;;;2.70;1.93;;;18.10;89.30;;;;;;6099621;23;20453;-71
2023/09/05 02:37:17;;;;;;;3.60;2.00;;;18.00;89.30;;;;;;6100436;23;20584;-71
2023/09/05 02:39:42;;;;;;;2.93;2.10;;;18.00;89.60;;;;;;6074546;23;20376;-71
2023/09/05 02:42:08;;;;;;;2.13;1.70;;;18.00;89.70;;;;;;6099812;23;20374;-72
2023/09/05 02:44:33;;;;;;;3.53;2.43;;;18.00;89.70;;;;;;6099802;23;20138;-71
2023/09/05 02:46:59;;;;;;;2.73;2.03;;;18.00;90.00;;;;;;6074487;23;20332;-72
2023/09/05 02:49:24;;;;;;;4.73;2.60;;;17.90;90.00;;;;;;6099272;23;20153;-72
2023/09/05 02:51:50;;;;;;;3.37;1.93;;;18.00;90.00;;;;;;6099967;23;20144;-72
2023/09/05 02:54:15;;;;;;;2.13;1.77;;;18.00;90.00;;;;;;6100273;23;20141;-72
2023/09/05 02:56:41;;;;;;;3.13;2.40;;;17.90;89.90;;;;;;6100567;23;20142;-72
2023/09/05 02:59:06;;;;;;;3.03;1.80;;;17.90;90.00;;;;;;6100575;23;20147;-72
2023/09/05 03:01:32;;;;;;;2.30;1.90;;;17.90;89.90;;;;;;6073912;23;20269;-72
2023/09/05 03:03:58;;;;;;;2.90;1.90;;;17.90;89.80;;;;;;6099375;23;20466;-72
2023/09/05 03:06:24;;;;;;;2.43;1.50;;;18.00;89.40;;;;;;6075887;23;20952;-72
2023/09/05 03:08:49;;;;;;;2.70;2.00;;;18.00;88.40;;;;;;6101918;23;20358;-72
2023/09/05 03:11:16;;;;;;;2.53;1.90;;;18.10;87.90;;;;;;6052758;23;20174;-72
2023/09/05 03:13:42;;;;;;;2.93;2.00;;;18.10;87.60;;;;;;6074720;23;20133;-72
2023/09/05 03:16:08;;;;;;;2.37;1.80;;;18.00;87.40;;;;;;6075686;23;20665;-72
2023/09/05 03:18:35;;;;;;;2.20;2.00;;;18.00;87.30;;;;;;6075047;23;20799;-72
2023/09/05 03:21:00;;;;;;;2.93;1.70;;;18.00;86.90;;;;;;6100012;23;20412;-72
2023/09/05 03:23:26;;;;;;;3.23;2.03;;;18.00;86.90;;;;;;6098947;23;20184;-72
2023/09/05 03:25:52;;;;;;;3.70;2.43;;;18.00;86.80;;;;;;6074221;23;20180;-72
2023/09/05 03:28:19;;;;;;;4.23;1.90;;;18.00;87.00;;;;;;6074832;23;20133;-72
2023/09/05 03:30:45;;;;;;;4.20;2.40;;;18.00;86.90;;;;;;6099823;23;20396;-72
2023/09/05 03:33:11;;;;;;;3.47;2.37;;;18.00;86.80;;;;;;6099376;23;20687;-72
2023/09/05 03:35:36;;;;;;;3.33;2.10;;;18.00;86.60;;;;;;6073944;23;20463;-72
2023/09/05 03:38:02;;;;;;;3.27;2.50;;;18.00;86.60;;;;;;6100202;23;20217;-72
2023/09/05 03:40:29;;;;;;;3.93;2.00;;;18.00;86.40;;;;;;6074278;23;20206;-72
2023/09/05 03:42:54;;;;;;;6.70;2.40;;;18.00;86.20;;;;;;6099706;23;20366;-71
2023/09/05 03:45:21;;;;;;;2.57;1.90;;;18.00;86.20;;;;;;6099611;23;20430;-73
2023/09/05 03:47:47;;;;;;;4.73;2.57;;;18.00;86.00;;;;;;6074723;23;20513;-73
2023/09/05 03:50:14;;;;;;;3.27;2.10;;;18.00;86.00;;;;;;6099452;23;20388;-72
2023/09/05 03:52:40;;;;;;;2.93;2.60;;;18.00;86.30;;;;;;6097726;23;20149;-73
2023/09/05 03:55:06;;;;;;;2.93;2.23;;;18.00;85.50;;;;;;6099451;23;20369;-72
2023/09/05 03:57:32;;;;;;;3.17;2.07;;;18.00;85.30;;;;;;6074562;23;20145;-72
2023/09/05 03:59:57;;;;;;;2.27;1.80;;;18.10;84.70;;;;;;6074452;23;20667;-71
2023/09/05 04:02:23;;;;;;;2.60;2.23;;;18.00;84.70;;;;;;6103636;23;20139;-72
2023/09/05 04:04:54;;;;;;;2.97;2.10;;;18.00;84.60;;;;;;6054704;23;20235;-72
2023/09/05 04:07:22;;;;;;;5.60;2.90;;;18.00;84.70;;;;;;6101881;23;20146;-72
2023/09/05 04:09:48;;;;;;;7.80;2.27;;;18.00;85.10;;;;;;6078080;23;20429;-72
2023/09/05 04:12:15;;;;;;;5.03;2.57;;;18.00;84.90;;;;;;6101879;23;20803;-72
2023/09/05 04:14:40;;;;;;;3.10;2.50;;;18.00;84.70;;;;;;6104399;23;20371;-74
2023/09/05 04:17:06;;;;;;;4.07;2.73;;;18.00;84.70;;;;;;6103690;23;20481;-71
2023/09/05 04:19:32;;;;;;;5.23;2.60;;;18.00;84.50;;;;;;6103039;23;20154;-73
2023/09/05 04:21:58;;;;;;;5.20;2.50;;;18.00;84.20;;;;;;6103805;23;20130;-73
2023/09/05 04:24:23;;;;;;;5.30;2.87;;;18.00;84.20;;;;;;6103648;23;20139;-74
2023/09/05 04:26:53;;;;;;;3.97;2.63;;;18.00;84.20;;;;;;6103617;23;20475;-72
2023/09/05 04:29:19;;;;;;;5.50;2.83;;;18.00;84.30;;;;;;6102642;23;20832;-73
2023/09/05 04:31:44;;;;;;;5.30;2.87;;;17.90;84.60;;;;;;6079139;23;20400;-72
2023/09/05 04:34:10;;;;;;;3.30;2.37;;;17.80;84.80;;;;;;6105710;23;20139;-73
2023/09/05 04:36:37;;;;;;;5.87;3.10;;;17.80;85.20;;;;;;6104579;23;20268;-74
2023/09/05 04:39:05;;;;;;;5.13;3.27;;;17.80;85.30;;;;;;6105017;23;20169;-72
2023/09/05 04:41:30;;;;;;;3.57;2.47;;;17.80;85.10;;;;;;6081038;23;20447;-72
2023/09/05 04:43:56;;;;;;;6.20;2.80;;;17.80;84.90;;;;;;6079712;23;20365;-73
2023/09/05 04:46:22;;;;;;;3.80;2.40;;;17.90;84.90;;;;;;6104960;23;20403;-73
2023/09/05 04:48:49;;;;;;;4.10;2.33;;;17.90;84.40;;;;;;6104144;23;20142;-73
2023/09/05 04:51:14;;;;;;;3.00;2.50;;;17.90;84.70;;;;;;6103032;23;20422;-73
2023/09/05 04:53:40;;;;;;;3.83;2.30;;;17.90;84.30;;;;;;6102918;23;20369;-74
2023/09/05 04:56:06;;;;;;;4.03;2.53;;;17.90;84.60;;;;;;6105385;23;20149;-74
2023/09/05 04:58:32;;;;;;;4.47;2.27;;;17.90;84.50;;;;;;6106159;23;20143;-75
2023/09/05 05:01:02;;;;;;;4.80;2.50;;;17.90;84.60;;;;;;6108101;23;20171;-73
2023/09/05 05:03:32;;;;;;;3.27;2.47;;;17.90;84.60;;;;;;6109470;23;20627;-75
2023/09/05 05:05:58;;;;;;;3.43;2.60;;;17.90;84.60;;;;;;6083449;23;20418;-74
2023/09/05 05:08:24;;;;;;;6.37;3.17;;;17.90;84.70;;;;;;6108878;23;20362;-74
2023/09/05 05:10:50;;;;;;;6.10;2.40;;;18.00;84.40;;;;;;6082708;23;20165;-74
2023/09/05 05:13:15;;;;;;;3.40;2.33;;;18.00;84.00;;;;;;6088431;23;20410;-76
2023/09/05 05:15:43;;;;;;;2.63;2.20;;;18.10;83.70;;;;;;6085791;23;20149;-75
2023/09/05 05:18:09;;;;;;;2.77;2.00;;;18.10;83.50;;;;;;6089452;23;20158;-73
2023/09/05 05:20:34;;;;;;;3.10;2.27;;;18.10;83.30;;;;;;6112098;23;20705;-73
2023/09/05 05:23:00;;;;;;;3.03;2.40;;;18.20;83.10;;;;;;6084892;23;20275;-77
2023/09/05 05:25:26;;;;;;;3.73;2.57;;;18.20;83.00;;;;;;6085485;23;20169;-75
2023/09/05 05:27:51;;;;;;;2.60;2.13;;;18.20;82.80;;;;;;6083599;23;20208;-74
2023/09/05 05:30:17;;;;;;;2.83;2.20;;;18.20;82.40;;;;;;6107215;23;20157;-75
2023/09/05 05:32:42;;;;;;;2.57;2.30;;;18.30;82.20;;;;;;6108950;23;20138;-74
2023/09/05 05:35:09;;;;;;;2.60;2.07;;;18.30;81.90;;;;;;6111440;23;20374;-77
2023/09/05 05:37:35;;;;;;;3.70;2.50;;;18.40;82.10;;;;;;6084847;23;20145;-75
2023/09/05 05:40:00;;;;;;;4.70;2.50;;;18.40;82.10;;;;;;6084112;23;20410;-75
2023/09/05 05:42:26;;;;;;;4.50;2.80;;;18.40;81.90;;;;;;6106740;23;20148;-74
2023/09/05 05:44:51;;;;;;;5.37;3.03;;;18.50;81.50;;;;;;6108954;23;20137;-74
2023/09/05 05:47:17;;;;;;;4.70;3.10;;;18.50;81.20;;;;;;6107252;23;20150;-73
2023/09/05 05:49:43;;;;;;;7.40;3.30;;;18.60;80.80;;;;;;6107385;23;20143;-76
2023/09/05 05:52:10;;;;;;;7.87;3.40;;;18.60;80.60;;;;;;6084180;23;20179;-76
2023/09/05 05:54:36;;;;;;;5.10;3.20;;;18.60;80.50;;;;;;6085692;23;20374;-76
2023/09/05 05:57:02;;;;;;;8.63;3.10;;;18.60;80.40;;;;;;6108850;23;20354;-77
2023/09/05 05:59:28;;;;;;;4.60;3.13;;;18.70;79.80;;;;;;6112556;23;20197;-73
2023/09/05 06:01:55;;;;;;;3.73;2.83;;;18.70;79.80;;;;;;6113663;23;20380;-76
2023/09/05 06:04:21;;;;;;;5.10;2.30;;;18.80;79.90;;;;;;6062476;23;20274;-77
2023/09/05 06:06:48;;;;;;;4.80;3.23;;;18.80;79.60;;;;;;6112020;23;20410;-74
2023/09/05 06:09:18;;;;;;;7.10;4.13;;;18.90;79.50;;;;;;6111084;23;20204;-76
2023/09/05 06:11:47;;;;;;;4.27;3.37;;;18.90;79.30;;;;;;6113493;23;20400;-76
2023/09/05 06:14:16;;;;;;;6.17;3.70;;;19.00;79.10;;;;;;6108838;23;20393;-73
2023/09/05 06:16:45;;;;;;;6.10;3.30;;;19.00;78.80;;;;;;6060848;23;20387;-75
2023/09/05 06:19:11;;;;;;;4.67;3.40;;;19.10;78.40;;;;;;6108334;23;20385;-75
2023/09/05 06:21:36;;;;;;;6.67;3.43;;;19.20;77.90;;;;;;6085512;23;20401;-75
2023/09/05 06:24:02;;;;;;;3.23;2.40;;;19.20;77.40;;;;;;6084493;23;20154;-74
2023/09/05 06:26:28;;;;;;;6.17;2.90;;;19.20;77.20;;;;;;6111492;23;20165;-76
2023/09/05 06:28:54;;;;;;;3.70;2.60;;;19.20;77.20;;;;;;6112642;23;20141;-76
2023/09/05 06:31:20;;;;;;;3.57;2.43;;;19.30;77.00;;;;;;6087395;23;20175;-77
2023/09/05 06:33:45;;;;;;;4.53;3.10;;;19.30;76.80;;;;;;6086635;23;20371;-75
2023/09/05 06:36:11;;;;;;;4.10;3.00;;;19.40;76.50;;;;;;6112403;23;20644;-74
2023/09/05 06:38:37;;;;;;;3.40;2.30;;;19.40;76.40;;;;;;6110279;23;20151;-76
2023/09/05 06:41:07;;;;;;;7.63;2.63;;;19.50;76.20;;;;;;6086799;23;20556;-79
2023/09/05 06:43:32;;;;;;;3.63;2.53;;;19.50;75.90;;;;;;6085497;23;20143;-76
2023/09/05 06:46:06;;;;;;;3.40;2.30;;;19.50;75.60;;;;;;6086035;23;20483;-79
2023/09/05 06:48:33;;;;;;;4.27;2.77;;;19.60;75.70;;;;;;6111038;23;20147;-74
2023/09/05 06:51:04;;;;;;;4.27;2.60;;;19.60;75.50;;;;;;6110037;23;20397;-74
2023/09/05 06:53:31;;;;;;;3.70;2.60;;;19.70;75.10;;;;;;6088618;23;20460;-74
2023/09/05 06:55:56;;;;;;;4.27;2.87;;;19.70;75.30;;;;;;6111737;23;20359;-75
2023/09/05 06:58:24;;;;;;;3.50;2.50;;;19.80;75.00;;;;;;6087657;23;20376;-76
2023/09/05 07:00:54;;;;;;;3.37;2.50;;;19.80;75.00;;;;;;6088715;23;20172;-75
2023/09/05 07:03:24;;;;;;;3.73;2.90;;;19.90;75.30;;;;;;6113633;23;20364;-77
2023/09/05 07:05:51;;;;;;;5.33;3.17;;;20.00;74.20;;;;;;6085615;23;20853;-74
2023/09/05 07:08:17;;;;;;;6.77;2.93;;;20.00;74.10;;;;;;6111158;23;20375;-77
2023/09/05 07:10:42;;;;;;;3.10;2.23;;;20.10;73.60;;;;;;6089689;23;20392;-77
2023/09/05 07:13:11;;;;;;;3.90;2.67;;;20.20;73.10;;;;;;6086671;23;20198;-76
2023/09/05 07:15:40;;;;;;;6.10;3.07;;;20.20;72.90;;;;;;6083771;23;20196;-74
2023/09/05 07:18:06;;;;;;;3.80;2.60;;;20.30;72.80;;;;;;6062071;23;20391;-75
2023/09/05 07:20:32;;;;;;;3.30;2.40;;;20.40;72.70;;;;;;6109796;23;20396;-74
2023/09/05 07:22:58;;;;;;;3.50;2.47;;;20.40;72.50;;;;;;6088347;23;20176;-75
2023/09/05 07:25:24;;;;;;;4.90;3.47;;;20.50;72.20;;;;;;6065136;23;20438;-75
2023/09/05 07:27:49;;;;;;;3.37;2.40;;;20.50;72.00;;;;;;6061720;23;20151;-74
2023/09/05 07:30:16;;;;;;;4.23;2.73;;;20.60;70.80;;;;;;6110524;23;20157;-74
2023/09/05 07:32:43;;;;;;;3.07;2.50;;;20.70;70.20;;;;;;6086978;23;20192;-78
2023/09/05 07:35:08;;;;;;;3.33;2.43;;;20.80;69.70;;;;;;6061858;23;20361;-75
2023/09/05 07:37:34;;;;;;;6.50;2.90;;;20.90;69.00;;;;;;6085526;23;20419;-75
2023/09/05 07:40:04;;;;;;;3.60;2.97;;;20.90;68.80;;;;;;6087389;23;20173;-78
2023/09/05 07:42:32;;;;;;;4.30;2.70;;;21.00;69.60;;;;;;6089239;23;20144;-76
2023/09/05 07:44:58;;;;;;;5.53;3.30;;;21.00;68.10;;;;;;6112081;23;20405;-76
2023/09/05 07:47:24;;;;;;;6.63;3.10;;;21.10;68.30;;;;;;6111249;23;20164;-76
2023/09/05 07:49:49;;;;;;;4.87;2.57;;;21.20;68.40;;;;;;6109715;23;20176;-74
2023/09/05 07:52:15;;;;;;;3.47;2.70;;;21.20;67.60;;;;;;6111720;23;20164;-76
2023/09/05 07:54:40;;;;;;;3.50;2.63;;;21.30;66.90;;;;;;6065324;23;20160;-77
2023/09/05 07:57:06;;;;;;;4.00;3.20;;;21.40;66.50;;;;;;6109840;23;20141;-76
2023/09/05 07:59:32;;;;;;;4.00;2.70;;;21.40;66.90;;;;;;6085757;23;20140;-76
2023/09/05 08:01:57;;;;;;;4.73;2.60;;;21.50;65.70;;;;;;6111899;23;20141;-74
2023/09/05 08:04:23;;;;;;;5.07;2.73;;;21.60;66.00;;;;;;6084246;23;20196;-76
2023/09/05 08:06:50;;;;;;;4.20;3.37;;;21.60;65.70;;;;;;6086467;23;20290;-77
2023/09/05 08:09:19;;;;;;;3.93;2.53;;;21.60;65.10;;;;;;6094044;23;20140;-79
2023/09/05 08:11:49;;;;;;;3.30;2.50;;;21.70;64.30;;;;;;6125195;23;20436;-76
2023/09/05 08:14:15;;;;;;;2.37;2.03;;;21.80;64.50;;;;;;6086557;23;20694;-75
2023/09/05 08:16:40;;;;;;;3.60;2.20;;;21.80;64.40;;;;;;6085525;23;20424;-75
2023/09/05 08:19:06;;;;;;;7.30;2.80;;;21.90;64.50;;;;;;6085230;23;20176;-74
2023/09/05 08:21:33;;;;;;;5.03;2.67;;;21.90;64.40;;;;;;6084667;23;20161;-76
2023/09/05 08:23:58;;;;;;;6.03;3.50;;;22.00;64.40;;;;;;6085834;23;20148;-75
2023/09/05 08:26:25;;;;;;;5.70;2.33;;;22.10;64.00;;;;;;6115057;23;20680;-74
2023/09/05 08:28:51;;;;;;;2.40;2.20;;;22.20;63.70;;;;;;6111480;23;20137;-78
2023/09/05 08:31:16;;;;;;;4.70;2.83;;;22.20;63.60;;;;;;6086083;23;20389;-78
2023/09/05 08:33:42;;;;;;;3.90;2.43;;;22.30;63.70;;;;;;6089153;23;20463;-74
2023/09/05 08:36:09;;;;;;;4.07;2.17;;;22.40;62.90;;;;;;6088872;23;20151;-75
2023/09/05 08:38:37;;;;;;;2.97;2.67;;;22.40;62.30;;;;;;6109971;23;20143;-75
2023/09/05 08:41:04;;;;;;;2.53;2.20;;;22.50;62.90;;;;;;6063691;23;20477;-78
2023/09/05 08:43:30;;;;;;;3.93;2.40;;;22.50;62.50;;;;;;6111682;23;20365;-77
2023/09/05 08:46:02;;;;;;;2.97;2.30;;;22.60;62.50;;;;;;6060523;23;20652;-77
2023/09/05 08:48:29;;;;;;;3.13;2.83;;;22.60;62.30;;;;;;6067805;23;20153;-78
2023/09/05 08:50:59;;;;;;;5.67;4.40;;;22.70;62.40;;;;;;6111407;23;20392;-75
2023/09/05 08:53:36;;;;;;;3.10;2.70;;;22.70;62.50;;;;;;6111059;23;20708;-75
2023/09/05 08:56:02;;;;;;;3.03;2.73;;;22.90;61.60;;;;;;6084794;23;20443;-75
2023/09/05 08:58:30;;;;;;;5.03;2.70;;;22.90;60.70;;;;;;6110174;23;20392;-79
2023/09/05 09:00:56;;;;;;;3.37;2.57;;;23.00;59.90;;;;;;6108347;23;20404;-75
2023/09/05 09:03:22;;;;;;;4.90;2.90;;;23.00;60.10;;;;;;6086646;23;20380;-77
2023/09/05 09:05:49;;;;;;;3.20;2.53;;;23.10;60.70;;;;;;6113970;23;20192;-75
2023/09/05 09:08:15;;;;;;;3.60;2.83;;;23.10;61.00;;;;;;6109885;23;20368;-74
2023/09/05 09:10:41;;;;;;;3.97;2.50;;;23.20;60.00;;;;;;6110374;23;20809;-76
2023/09/05 09:13:16;;;;;;;3.70;2.40;;;23.30;59.90;;;;;;6088376;23;20574;-77
2023/09/05 09:15:44;;;;;;;6.30;2.60;;;23.40;59.50;;;;;;6063786;23;20369;-78
2023/09/05 09:18:20;;;;;;;3.73;2.23;;;23.50;59.50;;;;;;6111858;23;20384;-75
2023/09/05 09:20:51;;;;;;;3.40;2.53;;;23.50;59.60;;;;;;6083998;23;20415;-77
2023/09/05 09:23:28;;;;;;;2.80;2.43;;;23.50;59.50;;;;;;6112800;23;20369;-76
2023/09/05 09:25:55;;;;;;;2.50;2.07;;;23.60;59.40;;;;;;6087929;23;20416;-77
2023/09/05 09:28:29;;;;;;;4.20;2.73;;;23.70;59.30;;;;;;6113428;23;20865;-76
2023/09/05 09:31:11;;;;;;;3.10;2.33;;;23.70;59.20;;;;;;6115023;23;20407;-77
2023/09/05 09:33:38;;;;;;;5.00;2.83;;;23.80;59.00;;;;;;6092118;23;20396;-75
2023/09/05 09:36:05;;;;;;;2.33;2.13;;;23.90;58.90;;;;;;6092637;23;20420;-77
2023/09/05 09:38:32;;;;;;;4.07;2.70;;;24.00;58.60;;;;;;6068775;23;20380;-77
2023/09/05 09:41:02;;;;;;;2.87;2.57;;;24.10;58.60;;;;;;6094274;23;20405;-77
2023/09/05 09:43:29;;;;;;;3.17;2.30;;;24.10;58.60;;;;;;6115980;23;20365;-75
2023/09/05 09:45:57;;;;;;;3.07;2.30;;;24.10;58.70;;;;;;6114788;23;20484;-79
2023/09/05 09:48:26;;;;;;;2.70;2.40;;;24.10;58.80;;;;;;6088674;23;20455;-78
2023/09/05 09:50:54;;;;;;;4.80;2.90;;;24.30;58.10;;;;;;6089479;23;20419;-74
2023/09/05 09:53:28;;;;;;;2.27;2.07;;;24.30;58.00;;;;;;6089497;23;20460;-76
2023/09/05 09:55:55;;;;;;;5.90;2.83;;;24.40;57.70;;;;;;6113911;23;20376;-77
2023/09/05 09:58:24;;;;;;;6.00;2.70;;;24.40;57.30;;;;;;6064436;23;20379;-76
2023/09/05 10:00:51;;;;;;;3.87;2.47;;;24.50;56.70;;;;;;6062664;23;20418;-76
2023/09/05 10:03:18;;;;;;;3.10;2.13;;;24.60;57.00;;;;;;6088387;23;20400;-78
2023/09/05 10:05:46;;;;;;;8.40;2.60;;;24.60;56.60;;;;;;6069903;23;20472;-78
2023/09/05 10:08:12;;;;;;;4.83;3.13;;;24.60;56.60;;;;;;6068249;23;20376;-78
2023/09/05 10:10:41;;;;;;;3.70;2.53;;;24.60;56.50;;;;;;6090325;23;20670;-77
2023/09/05 10:13:15;;;;;;;4.43;2.73;;;24.70;56.40;;;;;;6091817;23;20364;-77
2023/09/05 10:15:42;;;;;;;5.60;2.50;;;24.70;56.80;;;;;;6117033;23;20417;-77
2023/09/05 10:18:12;;;;;;;2.50;2.13;;;24.70;57.00;;;;;;6087703;23;20392;-77
2023/09/05 10:20:40;;;;;;;3.13;1.83;;;24.80;56.60;;;;;;6065505;23;20472;-76
2023/09/05 10:23:06;;;;;;;2.87;2.30;;;24.80;56.00;;;;;;6090894;23;20431;-75
2023/09/05 10:25:37;;;;;;;3.40;2.80;;;24.90;56.60;;;;;;6091879;23;20412;-78
2023/09/05 10:28:03;;;;;;;2.60;2.40;;;24.90;56.70;;;;;;6089505;23;20432;-78
2023/09/05 10:30:29;;;;;;;2.87;1.90;;;25.00;56.90;;;;;;6092947;23;20491;-77
2023/09/05 10:32:57;;;;;;;3.13;2.30;;;25.10;57.30;;;;;;6066589;23;20389;-76
2023/09/05 10:35:23;;;;;;;3.30;2.47;;;25.20;56.30;;;;;;6112759;23;20159;-78
2023/09/05 10:37:55;;;;;;;2.60;2.33;;;25.20;56.10;;;;;;6111863;23;20368;-75
2023/09/05 10:40:33;;;;;;;2.87;2.17;;;25.30;55.90;;;;;;6088795;23;20410;-77
2023/09/05 10:43:01;;;;;;;4.30;2.70;;;25.40;56.00;;;;;;6064917;23;20384;-76
2023/09/05 10:45:27;;;;;;;5.50;3.10;;;25.40;55.90;;;;;;6113849;23;20404;-77
2023/09/05 10:47:58;;;;;;;2.33;2.13;;;25.40;55.90;;;;;;6088313;23;20404;-77
2023/09/05 10:50:25;;;;;;;3.50;2.40;;;25.40;56.20;;;;;;6113027;23;20415;-78
2023/09/05 10:53:12;;;;;;;4.40;1.83;;;25.50;56.20;;;;;;6091975;23;20356;-77
2023/09/05 10:55:50;;;;;;;3.37;2.60;;;25.50;55.60;;;;;;6114368;23;20375;-77
2023/09/05 10:58:43;;;;;;;3.30;2.07;;;25.60;55.80;;;;;;6090314;23;20377;-76
2023/09/05 11:01:29;;;;;;;3.50;2.53;;;25.70;55.20;;;;;;6113816;23;20392;-77
2023/09/05 11:03:55;;;;;;;6.97;2.57;;;25.70;55.10;;;;;;6114019;23;20443;-77
2023/09/05 11:06:22;;;;;;;3.10;2.47;;;25.80;54.90;;;;;;6092301;23;20416;-77
2023/09/05 11:09:05;;;;;;;3.77;2.50;;;25.80;55.10;;;;;;6115186;23;20788;-80
2023/09/05 11:11:31;;;;;;;4.40;2.77;;;25.90;55.10;;;;;;6088876;23;20404;-76
2023/09/05 11:13:57;;;;;;;3.50;2.60;;;26.00;55.20;;;;;;6066300;23;20377;-78
2023/09/05 11:16:24;;;;;;;3.13;2.27;;;26.10;54.30;;;;;;6091505;23;20367;-78
2023/09/05 11:18:57;;;;;;;4.17;2.20;;;26.10;54.50;;;;;;6114340;23;20408;-78
2023/09/05 11:21:24;;;;;;;2.40;2.00;;;26.10;54.80;;;;;;6068049;23;20485;-78
2023/09/05 11:23:54;;;;;;;2.40;1.90;;;26.10;55.00;;;;;;6067956;23;20388;-78
2023/09/05 11:26:21;;;;;;;3.40;2.20;;;26.20;54.50;;;;;;6092998;23;20423;-77
2023/09/05 11:28:51;;;;;;;2.20;2.00;;;26.30;54.90;;;;;;6115677;23;20389;-78
2023/09/05 11:31:21;;;;;;;2.17;1.97;;;26.30;54.30;;;;;;6120118;23;20830;-79
2023/09/05 11:33:48;;;;;;;3.23;2.13;;;26.40;52.90;;;;;;6091105;23;20380;-76
2023/09/05 11:36:14;;;;;;;3.10;2.43;;;26.40;52.60;;;;;;6092645;23;20373;-76
2023/09/05 11:38:50;;;;;;;2.40;2.17;;;26.40;52.50;;;;;;6113787;23;20396;-78
2023/09/05 11:41:17;;;;;;;2.50;2.10;;;26.40;52.80;;;;;;6113994;23;20446;-77
2023/09/05 11:43:52;;;;;;;2.33;1.97;;;26.50;52.60;;;;;;6091421;23;20360;-77
2023/09/05 11:46:19;;;;;;;3.17;2.27;;;26.60;52.50;;;;;;6112950;23;20849;-77
2023/09/05 11:48:46;;;;;;;3.57;2.23;;;26.60;51.50;;;;;;6115098;23;20373;-77
2023/09/05 11:51:14;;;;;;;2.67;2.00;;;26.70;51.60;;;;;;6114055;23;20388;-76
2023/09/05 11:53:45;;;;;;;2.87;2.10;;;26.70;51.70;;;;;;6113038;23;20385;-77
2023/09/05 11:56:11;;;;;;;1.70;1.60;;;26.70;52.00;;;;;;6068787;23;20404;-80
2023/09/05 11:58:37;;;;;;;3.83;2.43;;;26.70;52.00;;;;;;6068059;23;20412;-77
2023/09/05 12:01:03;;;;;;;3.17;2.13;;;26.80;51.90;;;;;;6089816;23;20432;-78
2023/09/05 12:03:30;;;;;;;3.60;2.47;;;26.90;53.20;;;;;;6090029;23;20416;-78
2023/09/05 12:05:57;;;;;;;2.40;2.20;;;27.70;58.70;;;;;;6091071;23;20219;-79
2023/09/05 12:08:23;;;;;;;4.43;2.33;;;27.10;72.20;;;;;;6111680;23;20376;-77
2023/09/05 12:10:52;;;;;;;2.43;2.07;;;26.90;66.30;;;;;;6086808;23;20711;-77
2023/09/05 12:13:19;;;;;;;4.03;1.87;;;26.90;66.70;;;;;;6090541;23;20368;-78
2023/09/05 12:15:46;;;;;;;3.13;2.33;;;27.00;60.30;;;;;;6089638;23;20420;-77
2023/09/05 12:18:24;;;;;;;3.50;2.00;;;26.90;60.50;;;;;;6063178;23;20384;-77
2023/09/05 12:20:57;;;;;;;3.30;2.10;;;27.00;61.70;;;;;;6089639;23;20400;-79
2023/09/05 12:23:26;;;;;;;6.27;3.10;;;26.90;62.30;;;;;;6089546;23;20479;-77
2023/09/05 12:25:55;;;;;;;3.20;2.23;;;27.00;63.90;;;;;;6065785;23;20421;-79
2023/09/05 12:28:22;;;;;;;4.17;2.07;;;27.20;63.20;;;;;;6064034;23;20492;-76
2023/09/05 12:30:49;;;;;;;3.10;1.63;;;27.20;63.80;;;;;;6064206;23;20404;-77
2023/09/05 12:33:17;;;;;;;2.10;1.90;;;27.20;62.50;;;;;;6029431;23;20443;-78
2023/09/05 12:35:45;;;;;;;4.50;2.80;;;27.30;62.60;;;;;;6028226;23;20372;-76
2023/09/05 12:38:11;;;;;;;2.53;2.07;;;27.20;62.90;;;;;;6002657;23;20520;-77
2023/09/05 12:40:37;;;;;;;2.87;2.57;;;27.20;63.40;;;;;;6004437;23;20465;-77
2023/09/05 12:43:04;;;;;;;2.57;2.10;;;27.20;62.60;;;;;;6002381;23;20396;-76
2023/09/05 12:45:33;;;;;;;2.17;1.97;;;27.20;61.80;;;;;;6004239;23;20769;-75
2023/09/05 12:48:00;;;;;;;2.40;2.00;;;27.30;61.80;;;;;;5978931;23;20387;-77
2023/09/05 12:50:29;;;;;;;3.20;1.90;;;27.30;61.20;;;;;;6003776;23;20407;-76